• Join FlightAware (Why Join?)
  • Login
  • US Flag 
12:39AM EDT


 

Airport Tracker/Info


-or-


 

Live Flight TrackerFlight Track Log ✈ VIR19 ✈ 10-Mar-2014 ✈ EGLL / LHR - KSFO

Flight Track Log - Related Links

Times and Time Zones

All times are in EDT time to prevent confusion due to time zone crossing. See the VIR19 flight status page for this flight to view local times or setup timezone preferences in your user account.

Time Position Orientation Groundspeed Altitude Reporting Facility
EDT Latitude Longitude Course Direction KTS MPH feet Rate Location/Type
07:24AM 51.4665 -0.4853 88° East 169 194 300  Level FlightAware ADS-B (EGLF / FAB)
07:24AM 51.4653 -0.4167 91° East 172 198 600 1,320 Climbing FlightAware ADS-B (EGLF / FAB)
07:24AM 51.4649 -0.4115 99° East 174 200 700 1,980 Climbing FlightAware ADS-B (EGTR / ETR)
07:24AM 51.4643 -0.4078 106° East 176 203 800 1,800 Climbing FlightAware ADS-B
07:24AM 51.4601 -0.3963 132° Southeast 184 212 1,100 1,500 Climbing FlightAware ADS-B
07:25AM 51.4527 -0.3890 161° South 192 221 1,300 1,500 Climbing FlightAware ADS-B
07:25AM 51.4468 -0.3872 165° South 195 224 1,500 1,500 Climbing FlightAware ADS-B
07:25AM 51.4463 -0.3871 175° South 200 230 1,500 840 Level FlightAware ADS-B (EGLC / LCY)
07:25AM 51.4407 -0.3878 186° South 206 237 1,600 840 Climbing FlightAware ADS-B (EGLC / LCY)
07:25AM 51.4384 -0.3886 193° South 211 243 1,600  Level FlightAware ADS-B
07:25AM 51.4374 -0.3890 200° South 215 247 1,600 1,320 Level FlightAware ADS-B (EGLC / LCY)
07:25AM 51.4301 -0.3947 210° Southwest 220 253 1,800 1,980 Climbing FlightAware ADS-B
07:25AM 51.4278 -0.3974 214° Southwest 224 258 1,900 1,380 Climbing FlightAware ADS-B (EGTR / ETR)
07:25AM 51.4191 -0.4072 217° Southwest 234 269 2,100 960 Climbing FlightAware ADS-B
07:25AM 51.4169 -0.4093 217° Southwest 235 270 2,100 1,080 Level FlightAware ADS-B
07:25AM 51.4099 -0.4197 223° Southwest 242 278 2,300 1,260 Climbing FlightAware ADS-B
07:25AM 51.4057 -0.4266 232° Southwest 247 284 2,400 660 Climbing FlightAware ADS-B
07:25AM 51.4037 -0.4327 241° Southwest 251 289 2,400  Level FlightAware ADS-B
07:25AM 51.4032 -0.4344 243° Southwest 251 289 2,400 1,980 Level FlightAware ADS-B
07:26AM 51.4021 -0.4379 247° West 252 290 2,500 1,980 Climbing FlightAware ADS-B
07:26AM 51.4017 -0.4395 243° Southwest 251 289 2,500 1,500 Level FlightAware ADS-B
07:26AM 51.4007 -0.4449 254° West 253 291 2,600 960 Climbing FlightAware ADS-B
07:26AM 51.3998 -0.4504 259° West 255 293 2,600 840 Level FlightAware ADS-B
07:26AM 51.3993 -0.4561 263° West 256 295 2,700 1,680 Climbing FlightAware ADS-B
07:26AM 51.3990 -0.4637 267° West 258 297 2,800 960 Climbing FlightAware ADS-B (EGLF / FAB)
07:26AM 51.3989 -0.4694 267° West 260 299 2,800 660 Level FlightAware ADS-B
07:26AM 51.3988 -0.4713 269° West 265 305 2,900 -540 Climbing FlightAware ADS-B (EGLF / FAB)
07:26AM 51.3998 -0.4523 260° West 255 293 2,700 1,320 Descending FlightAware ADS-B (EGTR / ETR)
07:26AM 51.3986 -0.4991 270° West 273 314 3,100 3,720 Climbing FlightAware ADS-B
07:26AM 51.3985 -0.5094 270° West 278 320 3,200 1,500 Climbing FlightAware ADS-B
07:26AM 51.3983 -0.5302 269° West 284 327 3,500 1,860 Climbing FlightAware ADS-B
07:26AM 51.3983 -0.5408 270° West 287 330 3,700 2,400 Climbing FlightAware ADS-B (EGLF / FAB)
07:27AM 51.3982 -0.5643 270° West 289 333 4,100 2,820 Climbing FlightAware ADS-B
07:27AM 51.3982 -0.5813 270° West 288 331 4,500 3,000 Climbing FlightAware ADS-B
07:27AM 51.3983 -0.5983 270° West 287 330 4,900 2,760 Climbing FlightAware ADS-B
07:27AM 51.3983 -0.6025 270° West 287 330 5,100 3,000 Climbing FlightAware ADS-B
07:27AM 51.3984 -0.6152 270° West 287 330 5,300 2,160 Climbing FlightAware ADS-B (EGKA / ESH)
07:27AM 51.3985 -0.6303 271° West 286 329 5,500 2,400 Climbing FlightAware ADS-B
07:27AM 51.3987 -0.6451 271° West 285 328 5,900 3,000 Climbing FlightAware ADS-B
07:27AM 51.3991 -0.6641 272° West 286 329 6,300 2,640 Climbing FlightAware ADS-B
07:27AM 51.3991 -0.6640 272° West 286 329 6,300 3,000 Level FlightAware ADS-B (EGLC / LCY)
07:27AM 51.3991 -0.6661 273° West 288 331 6,500 2,220 Climbing FlightAware ADS-B (EGLC / LCY)
07:28AM 51.4002 -0.7003 273° West 288 331 6,900 2,100 Climbing FlightAware ADS-B
07:28AM 51.3998 -0.6875 273° West 289 333 7,100 2,580 Climbing FlightAware ADS-B (EGLC / LCY)
07:28AM 51.4014 -0.7323 273° West 288 331 7,600 2,760 Climbing FlightAware ADS-B
07:28AM 51.4017 -0.7406 273° West 287 330 7,800 2,280 Climbing FlightAware ADS-B
07:28AM 51.4025 -0.7619 273° West 289 333 8,100 1,980 Climbing FlightAware ADS-B
07:28AM 51.4028 -0.7728 273° West 290 334 8,300 2,220 Climbing FlightAware ADS-B
07:28AM 51.4034 -0.7941 273° West 291 335 8,700 2,400 Climbing FlightAware ADS-B
07:28AM 51.4038 -0.8050 273° West 291 335 8,900 2,520 Climbing FlightAware ADS-B (EGLF / FAB)
07:29AM 51.4039 -0.8114 271° West 291 335 9,000 3,000 Climbing FlightAware ADS-B (EGHO)
07:29AM 51.4041 -0.8177 273° West 291 335 9,200 3,000 Climbing FlightAware ADS-B (EGDM)
07:29AM 51.4044 -0.8287 273° West 290 334 9,400 2,220 Climbing FlightAware ADS-B
07:29AM 51.4047 -0.8349 271° West 290 334 9,500 1,860 Climbing FlightAware ADS-B (EGHO)
07:29AM 51.4056 -0.8629 273° West 291 335 9,900 2,580 Climbing FlightAware ADS-B
07:29AM 51.4058 -0.8673 273° West 293 337 10,200 1,980 Climbing FlightAware ADS-B (EGKA / ESH)
07:29AM 51.4067 -0.9023 272° West 299 344 10,500 900 Climbing FlightAware ADS-B (EGDM)
07:29AM 51.4069 -0.9090 273° West 302 348 10,500 720 Level FlightAware ADS-B
07:29AM 51.4076 -0.9202 277° West 307 353 10,600 960 Climbing FlightAware ADS-B
07:29AM 51.4079 -0.9246 276° West 306 352 10,600  Level FlightAware ADS-B (EGLC / LCY)
07:29AM 51.4092 -0.9338 282° West 312 359 10,600 1,080 Level FlightAware ADS-B
07:30AM 51.4119 -0.9494 286° West 318 366 10,800 1,320 Climbing FlightAware ADS-B (EGDM)
07:30AM 51.4126 -0.9541 287° West 319 367 10,800 1,500 Level FlightAware ADS-B
07:30AM 51.4128 -0.9541 279° West 310 357 10,900 1,080 Climbing FlightAware ADS-B (EGHS)
07:30AM 51.4167 -0.9744 289° West 329 379 11,000 480 Climbing FlightAware ADS-B (EGTR / ETR)
07:30AM 51.4195 -0.9860 287° West 327 376 11,000 720 Level FlightAware ADS-B (EGFF / CWL)
07:30AM 51.4262 -1.0169 290° West 344 396 11,200 600 Climbing FlightAware ADS-B
07:30AM 51.4290 -1.0313 289° West 347 399 11,200  Level FlightAware ADS-B
07:30AM 51.4293 -1.0315 289° West 347 399 11,200 1,500 Level FlightAware ADS-B (EGLC / LCY)
07:30AM 51.4335 -1.0510 288° West 351 404 11,400 1,620 Climbing FlightAware ADS-B (EGLL / LHR)
07:30AM 51.4396 -1.0783 290° West 358 412 11,700 1,260 Climbing FlightAware ADS-B (EGLF / FAB)
07:31AM 51.4416 -1.0857 289° West 360 414 11,700 360 Level FlightAware ADS-B (EGHL / QLA)
07:31AM 51.4488 -1.1191 290° West 372 428 11,800 840 Climbing FlightAware ADS-B
07:31AM 51.4569 -1.1559 290° West 381 438 12,100 1,200 Climbing FlightAware ADS-B
07:31AM 51.4606 -1.1723 290° West 383 441 12,200 1,080 Climbing FlightAware ADS-B
07:31AM 51.4664 -1.1993 289° West 389 448 12,400 1,740 Climbing FlightAware ADS-B
07:31AM 51.4703 -1.2158 288° West 387 445 12,700 2,400 Climbing FlightAware ADS-B (EGHI / SOU)
07:31AM 51.4721 -1.2267 289° West 390 449 12,800 1,980 Climbing FlightAware ADS-B (EGLF / FAB)
07:31AM 51.4756 -1.2429 288° West 387 445 13,000 1,980 Climbing FlightAware ADS-B (EGFF / CWL)
07:32AM 51.4775 -1.2510 288° West 387 445 13,100 1,560 Climbing FlightAware ADS-B (EGNR / CEG)
07:32AM 51.4845 -1.2814 289° West 393 452 13,400 1,560 Climbing FlightAware ADS-B
07:32AM 51.4858 -1.2895 288° West 387 445 13,500 2,160 Climbing FlightAware ADS-B (EGNR / CEG)
07:32AM 51.4919 -1.3146 290° West 396 456 13,800 2,220 Climbing FlightAware ADS-B
07:32AM 51.5029 -1.3669 289° West 395 455 14,500 2,400 Climbing FlightAware ADS-B
07:32AM 51.5035 -1.3700 290° West 395 455 14,600 1,500 Climbing FlightAware ADS-B
07:33AM 51.5218 -1.4542 289° West 404 465 15,300 1,320 Climbing FlightAware ADS-B
07:33AM 51.5221 -1.4570 289° West 404 465 15,300 1,980 Level FlightAware ADS-B (EGDM)
07:33AM 51.5364 -1.5223 289° West 405 466 16,100 1,800 Climbing FlightAware ADS-B (EGFF / CWL)
07:33AM 51.5403 -1.5423 288° West 407 468 16,200 1,440 Climbing FlightAware ADS-B
07:34AM 51.5533 -1.6059 289° West 412 474 16,800 1,560 Climbing FlightAware ADS-B
07:34AM 51.5585 -1.6292 289° West 414 476 17,000 1,560 Climbing FlightAware ADS-B
07:34AM 51.5620 -1.6466 289° West 416 479 17,200 1,800 Climbing FlightAware ADS-B (EGLF / FAB)
07:34AM 51.5649 -1.6583 290° West 416 479 17,300 1,980 Climbing FlightAware ADS-B
07:34AM 51.5637 -1.6551 289° West 417 480 17,500 1,680 Climbing FlightAware ADS-B (EGLF / FAB)
07:34AM 51.5777 -1.7200 288° West 419 482 17,900 1,680 Climbing FlightAware ADS-B
07:35AM 51.5966 -1.8120 288° West 422 486 18,800 1,800 Climbing FlightAware ADS-B
07:35AM 51.6022 -1.8387 289° West 422 486 19,100 1,740 Climbing FlightAware ADS-B
07:35AM 51.6109 -1.8837 289° West 424 488 19,500 1,380 Climbing FlightAware ADS-B
07:35AM 51.6150 -1.9016 288° West 425 489 19,600 1,500 Climbing FlightAware ADS-B
07:36AM 51.6242 -1.9437 291° West 429 494 20,000 1,560 Climbing FlightAware ADS-B
07:36AM 51.6246 -1.9466 291° West 425 489 20,000 1,200 Level FlightAware ADS-B (EGLL / LHR)
07:36AM 51.6281 -1.9583 294° West 430 495 20,100 1,500 Climbing FlightAware ADS-B
07:36AM 51.6311 -1.9698 296° West 431 496 20,200 1,620 Climbing FlightAware ADS-B
07:36AM 51.6379 -1.9897 297° West 429 494 20,400 1,560 Climbing FlightAware ADS-B (EGHO)
07:36AM 51.6604 -2.0548 299° West 435 501 21,000 1,560 Climbing FlightAware ADS-B
07:36AM 51.6667 -2.0746 299° West 435 501 21,200 1,560 Climbing FlightAware ADS-B (EGHS)
07:37AM 51.6825 -2.1204 299° West 438 504 21,600 1,560 Climbing FlightAware ADS-B (EGDX / DGX)
07:37AM 51.6835 -2.1233 298° West 439 505 21,700 1,320 Climbing FlightAware ADS-B (EGHS)
07:37AM 51.6914 -2.1462 298° West 439 505 21,800 1,380 Climbing FlightAware ADS-B
07:37AM 51.7101 -2.2043 298° West 442 509 22,500 1,560 Climbing FlightAware ADS-B (EGTR / ETR)
07:37AM 51.7201 -2.2334 298° West 443 510 22,600 1,680 Climbing FlightAware ADS-B
07:37AM 51.7249 -2.2481 296° West 440 506 22,700 -540 Climbing FlightAware ADS-B (EGHI / SOU)
07:38AM 51.7410 -2.2983 296° West 442 509 22,400 1,380 Descending FlightAware ADS-B (EGBJ / GLO)
07:38AM 51.7487 -2.3247 297° West 447 514 23,300 3,540 Climbing FlightAware ADS-B
07:38AM 51.7620 -2.3663 296° West 445 512 23,700 1,740 Climbing FlightAware ADS-B (EGHO)
07:38AM 51.7648 -2.3755 297° West 449 517 23,800 960 Climbing FlightAware ADS-B (EGGP / LPL)
07:38AM 51.7675 -2.3842 296° West 442 509 23,800 1,380 Level FlightAware ADS-B (EGBJ / GLO)
07:38AM 51.7775 -2.4142 297° West 451 519 24,100 1,620 Climbing FlightAware ADS-B
07:38AM 51.7751 -2.4083 297° West 452 520 24,100  Level FlightAware ADS-B (EGLC / LCY)
07:38AM 51.7808 -2.4263 296° West 442 509 24,100 1,500 Level FlightAware ADS-B (EGBJ / GLO)
07:39AM 51.7968 -2.4775 296° West 449 517 24,600 2,160 Climbing FlightAware ADS-B (EGHL / QLA)
07:39AM 51.8043 -2.5017 296° West 450 518 25,000 3,180 Climbing FlightAware ADS-B (EGLC / LCY)
07:39AM 51.8085 -2.5171 294° West 447 514 25,300 3,660 Climbing FlightAware ADS-B
07:39AM 51.8111 -2.5292 291° West 441 507 25,800 3,240 Climbing FlightAware ADS-B (EGDX / DGX)
07:39AM 51.8164 -2.5508 289° West 439 505 25,900 1,680 Climbing FlightAware ADS-B
07:39AM 51.8229 -2.5851 285° West 437 503 26,200 1,980 Climbing FlightAware ADS-B (EGUO)
07:39AM 51.8266 -2.6074 283° West 436 502 26,500 2,100 Climbing FlightAware ADS-B (EGLL / LHR)
07:39AM 51.8298 -2.6297 283° West 438 504 26,700 1,800 Climbing FlightAware ADS-B
07:39AM 51.8309 -2.6359 282° West 438 504 26,800 1,140 Climbing FlightAware ADS-B (EGFH / SWS)
07:40AM 51.8392 -2.6969 283° West 441 507 27,100 -20,100 Climbing FlightAware ADS-B (EGLC / LCY)
07:40AM 51.8409 -2.7099 282° West 444 511 19,100 960 Descending FlightAware ADS-B (EGDM)
07:40AM 51.8445 -2.7360 282° West 446 513 27,300 31,080 Climbing FlightAware ADS-B
07:40AM 51.8483 -2.7651 281° West 446 513 27,400 900 Climbing FlightAware ADS-B (EGHH / BOH)
07:40AM 51.8502 -2.7784 281° West 447 514 27,500 1,080 Climbing FlightAware ADS-B (EGFF / CWL)
07:40AM 51.8530 -2.8013 282° West 450 518 27,600 660 Climbing FlightAware ADS-B
07:40AM 51.8574 -2.8344 283° West 454 522 27,700 1,020 Climbing FlightAware ADS-B
07:41AM 51.8684 -2.9143 282° West 450 518 28,200 1,080 Climbing FlightAware ADS-B
07:41AM 51.8716 -2.9411 283° West 461 531 28,300 1,380 Climbing FlightAware ADS-B
07:41AM 51.8851 -3.0426 282° West 464 534 29,100 1,440 Climbing FlightAware ADS-B
07:42AM 51.8996 -3.1520 282° West 468 539 29,800 840 Climbing FlightAware ADS-B (EGBS)
07:43AM 51.9130 -3.2555 282° West 478 550 30,000 180 Climbing FlightAware ADS-B (EGBJ / GLO)
07:43AM 51.9272 -3.3621 282° West 491 565 30,000  Level FlightAware ADS-B (EGDM)
07:44AM 51.9413 -3.4741 282° West 494 568 30,000  Level FlightAware ADS-B (EGNA)
07:44AM 51.9556 -3.5863 281° West 495 570 30,000  Level FlightAware ADS-B (EGFH / SWS)
07:44AM 51.9595 -3.6227 279° West 496 571 30,000  Level FlightAware ADS-B (EGBS)
07:44AM 51.9607 -3.6339 278° West 495 570 30,000  Level FlightAware ADS-B (EGFF / CWL)
07:45AM 51.9653 -3.6853 279° West 496 571 30,000  Level FlightAware ADS-B
07:45AM 51.9758 -3.8033 278° West 498 573 30,000  Level FlightAware ADS-B (EGFF / CWL)
07:45AM 51.9787 -3.8363 279° West 497 572 30,000  Level FlightAware ADS-B
07:45AM 51.9794 -3.8436 278° West 497 572 30,000  Level FlightAware ADS-B (EGFH / SWS)
07:45AM 51.9825 -3.8804 277° West 496 571 30,000  Level FlightAware ADS-B (EGFF / CWL)
07:45AM 51.9847 -3.9027 279° West 497 572 30,000  Level FlightAware ADS-B
07:46AM 51.9859 -3.9173 278° West 497 572 30,000  Level FlightAware ADS-B (EGBS)
07:46AM 51.9931 -3.9946 277° West 496 571 30,000  Level FlightAware ADS-B (EGHO)
07:46AM 51.9949 -4.0170 278° West 497 572 30,000  Level FlightAware ADS-B (EGBS)
07:46AM 51.9982 -4.0538 277° West 496 571 30,000  Level FlightAware ADS-B (EGFF / CWL)
07:46AM 51.9997 -4.0683 279° West 498 573 30,000  Level FlightAware ADS-B
07:46AM 52.0018 -4.0906 277° West 497 572 30,000  Level FlightAware ADS-B (EGFF / CWL)
07:46AM 52.0039 -4.1163 279° West 498 573 30,000  Level FlightAware ADS-B
07:47AM 52.0060 -4.1386 277° West 497 572 30,000  Level FlightAware ADS-B (EGDX / DGX)
07:47AM 52.0096 -4.1791 279° West 499 574 30,000  Level FlightAware ADS-B
07:47AM 52.0110 -4.1940 277° West 498 573 30,000  Level FlightAware ADS-B (EGHH / BOH)
07:47AM 52.0210 -4.3087 278° West 498 573 30,000  Level FlightAware ADS-B (EGBS)
07:48AM 52.0315 -4.4302 278° West 495 570 30,000  Level FlightAware ADS-B
07:48AM 52.0373 -4.4963 279° West 494 568 30,000  Level FlightAware ADS-B
07:49AM 52.0487 -4.6246 278° West 494 568 30,000  Level FlightAware ADS-B (EGBS)
07:49AM 52.0508 -4.6465 279° West 492 566 30,000  Level FlightAware ADS-B
07:49AM 52.0607 -4.7597 278° West 492 566 30,000  Level FlightAware ADS-B (EGFF / CWL)
07:50AM 52.0694 -4.8621 278° West 491 565 30,000  Level FlightAware ADS-B (KIWA)
07:50AM 52.0781 -4.9564 281° West 488 562 30,000  Level FlightAware ADS-B (EGBS)
07:51AM 52.0966 -5.0919 283° West 487 560 30,000  Level FlightAware ADS-B (EGHD / PLH)
07:51AM 52.1071 -5.1631 283° West 487 560 30,000  Level FlightAware ADS-B (EGBS)
07:52AM 52.1150 -5.2200 284° West 487 560 30,000  Level FlightAware ADS-B
07:52AM 52.1177 -5.2381 283° West 488 562 30,000  Level FlightAware ADS-B (EGBS)
07:52AM 52.1260 -5.2873 288° West 485 558 30,000  Level FlightAware ADS-B (EGFH / SWS)
07:52AM 52.1286 -5.2975 291° West 484 557 30,000  Level FlightAware ADS-B (EGBS)
07:52AM 52.1550 -5.3850 301° West 479 551 30,000  Level FlightAware ADS-B (EGFH / SWS)
07:52AM 52.1602 -5.3970 301° West 479 551 30,000  Level FlightAware ADS-B
07:53AM 52.2013 -5.4808 310° West 475 547 30,000  Level FlightAware ADS-B (EGFH / SWS)
07:53AM 52.2426 -5.5631 309° West 475 547 30,000  Level FlightAware ADS-B (EGFH / SWS)
07:54AM 52.2584 -5.5937 310° West 475 547 30,000  Level FlightAware ADS-B (EGAA / BFS)
07:54AM 52.3022 -5.6782 311° West 474 545 30,000  Level FlightAware ADS-B (EGFH / SWS)
07:55AM 52.3445 -5.7556 312° West 472 543 30,000  Level FlightAware ADS-B (EGFH / SWS)
07:55AM 52.3890 -5.8383 312° West 471 542 30,000  Level FlightAware ADS-B (EGFH / SWS)
07:56AM 52.4354 -5.9239 311° West 471 542 30,000  Level FlightAware ADS-B (EGFH / SWS)
07:56AM 52.4860 -6.0178 311° West 469 540 30,000  Level FlightAware ADS-B
07:57AM 52.5435 -6.1280 311° West 469 540 30,000  Level FlightAware ADS-B (EGAA / BFS)
07:57AM 52.5863 -6.2086 311° West 468 539 30,000  Level FlightAware ADS-B
07:58AM 52.6308 -6.2920 311° West 469 540 30,000  Level FlightAware ADS-B (EGAA / BFS)
07:58AM 52.6726 -6.3727 311° West 469 540 30,000  Level FlightAware ADS-B (EGFH / SWS)
07:59AM 52.7161 -6.4537 311° West 469 540 30,000  Level FlightAware ADS-B (EIDW / DUB)
07:59AM 52.7613 -6.5402 311° West 467 537 30,000  Level FlightAware ADS-B
08:00AM 52.8059 -6.6267 311° West 466 536 30,000  Level FlightAware ADS-B
08:01AM 52.8588 -6.7294 311° West 466 536 30,000  Level FlightAware ADS-B (EIDW / DUB)
08:01AM 52.9043 -6.8156 311° West 465 535 30,000  Level FlightAware ADS-B (EGFH / SWS)
08:01AM 52.9129 -6.8347 310° West 458 527 30,000  Level FlightAware ADS-B
08:02AM 52.9534 -6.9131 310° West 465 535 30,000  Level FlightAware ADS-B (EGAA / BFS)
08:02AM 53.0047 -7.0134 310° West 466 536 30,000  Level FlightAware ADS-B (EIDW / DUB)
08:03AM 53.0565 -7.1143 310° West 466 536 30,000  Level FlightAware ADS-B
08:03AM 53.0918 -7.1826 310° West 467 537 30,000  Level FlightAware ADS-B
08:04AM 53.1373 -7.2733 310° West 468 539 30,000  Level FlightAware ADS-B (EICK / ORK)
08:05AM 53.1864 -7.3695 309° West 462 532 30,000  Level FlightAware ADS-B (EGPK / PIK)
08:05AM 53.2366 -7.4687 310° West 467 537 30,000  Level FlightAware ADS-B (EICK / ORK)
08:06AM 53.2774 -7.5516 310° West 467 537 30,000  Level FlightAware ADS-B (EICK / ORK)
08:06AM 53.3187 -7.6344 310° West 467 537 30,000  Level FlightAware ADS-B (EICK / ORK)
08:07AM 53.3607 -7.7177 310° West 467 537 30,000  Level FlightAware ADS-B (EICK / ORK)
08:07AM 53.4032 -7.8035 310° West 467 537 30,000  Level FlightAware ADS-B (EICK / ORK)
08:07AM 53.4163 -7.8286 309° West 462 532 30,000  Level FlightAware ADS-B (EGPK / PIK)
08:08AM 53.4330 -7.8618 309° West 461 531 30,000  Level FlightAware ADS-B
08:08AM 53.4583 -7.9148 309° West 461 531 30,000  Level FlightAware ADS-B (EGPK / PIK)
08:08AM 53.4902 -7.9789 310° West 467 537 30,000  Level FlightAware ADS-B
08:09AM 53.5201 -8.0401 309° West 460 529 30,000  Level FlightAware ADS-B
08:09AM 53.5315 -8.0623 309° West 460 529 30,000  Level FlightAware ADS-B
08:09AM 53.5752 -8.1515 309° West 465 535 30,000  Level FlightAware ADS-B
08:10AM 53.6168 -8.2380 309° West 465 535 30,000  Level FlightAware ADS-B
08:10AM 53.6579 -8.3221 309° West 465 535 30,000  Level FlightAware ADS-B (EGAE / LDY)
08:11AM 53.6997 -8.4088 309° West 465 535 30,000  Level FlightAware ADS-B
08:11AM 53.7409 -8.4930 309° West 464 534 30,000  Level FlightAware ADS-B (EICK / ORK)
08:12AM 53.7863 -8.5884 309° West 463 533 30,000  Level FlightAware ADS-B
08:12AM 53.8324 -8.6840 309° West 463 533 30,000  Level FlightAware ADS-B
08:13AM 53.8739 -8.7710 309° West 463 533 30,000  Level FlightAware ADS-B (EGAE / LDY)
08:14AM 53.9037 -8.8330 309° West 462 532 30,000  Level FlightAware ADS-B
08:14AM 53.9649 -8.9602 309° West 463 533 30,000  Level FlightAware ADS-B (EICK / ORK)
08:15AM 54.0560 -9.1536 309° West 465 535 30,000  Level FlightAware ADS-B (EGAE / LDY)
08:18AM 54.3031 -9.6875 308° West 467 537 30,000  Level FlightAware ADS-B (EGAE / LDY)
08:19AM 54.3461 -9.7805 308° West 467 537 30,000  Level FlightAware ADS-B (EGAE / LDY)
08:21AM 54.4826 -10.0660 310° West  Level Estimated
08:22AM 54.5617 -10.2332 309° West  Level Estimated
08:23AM 54.6407 -10.4010 309° West  Level Estimated
08:24AM 54.7194 -10.5695 309° West  Level Estimated
08:25AM 54.7979 -10.7387 309° West  Level Estimated
08:26AM 54.8761 -10.9085 309° West  Level Estimated
08:27AM 54.9541 -11.0790 309° West  Level Estimated
08:28AM 55.0319 -11.2501 308° West  Level Estimated
08:29AM 55.1094 -11.4219 308° West  Level Estimated
08:30AM 55.1867 -11.5943 308° West  Level Estimated
08:31AM 55.2637 -11.7675 308° West  Level Estimated
08:32AM 55.3405 -11.9413 308° West  Level Estimated
08:33AM 55.4170 -12.1157 308° West  Level Estimated
08:34AM 55.4933 -12.2909 308° West  Level Estimated
08:35AM 55.5694 -12.4667 307° West  Level Estimated
08:36AM 55.6451 -12.6432 307° West  Level Estimated
08:37AM 55.7207 -12.8204 307° West  Level Estimated
08:38AM 55.7960 -12.9983 307° West  Level Estimated
08:39AM 55.8710 -13.1769 307° West  Level Estimated
08:40AM 55.9457 -13.3561 307° West  Level Estimated
08:41AM 56.0202 -13.5361 307° West  Level Estimated
08:42AM 56.0945 -13.7167 306° West  Level Estimated
08:43AM 56.1684 -13.8981 306° West  Level Estimated
08:44AM 56.2421 -14.0801 306° West  Level Estimated
08:45AM 56.3156 -14.2628 306° West  Level Estimated
08:46AM 56.3887 -14.4463 306° West  Level Estimated
08:47AM 56.4617 -14.6304 306° West  Level Estimated
08:48AM 56.5343 -14.8153 306° West  Level Estimated
08:49AM 56.6066 -15.0008 305° West  Level Estimated
08:50AM 56.6787 -15.1871 305° West  Level Estimated
08:51AM 56.7505 -15.3741 305° West  Level Estimated
08:52AM 56.8220 -15.5618 305° West  Level Estimated
08:53AM 56.8932 -15.7502 305° West  Level Estimated
08:54AM 56.9641 -15.9394 305° West  Level Estimated
08:55AM 57.0348 -16.1292 304° West  Level Estimated
08:56AM 57.1052 -16.3198 304° West  Level Estimated
08:57AM 57.1753 -16.5111 304° West  Level Estimated
08:58AM 57.2450 -16.7031 304° West  Level Estimated
08:59AM 57.3145 -16.8959 304° West  Level Estimated
09:00AM 57.3837 -17.0894 304° West  Level Estimated
09:01AM 57.4526 -17.2836 303° West  Level Estimated
09:02AM 57.5212 -17.4785 303° West  Level Estimated
09:03AM 57.5895 -17.6742 303° West  Level Estimated
09:04AM 57.6575 -17.8706 303° West  Level Estimated
09:05AM 57.7252 -18.0678 303° West  Level Estimated
09:06AM 57.7926 -18.2656 303° West  Level Estimated
09:07AM 57.8596 -18.4643 302° West  Level Estimated
09:08AM 57.9264 -18.6636 302° West  Level Estimated
09:09AM 57.9928 -18.8637 302° West  Level Estimated
09:10AM 58.0590 -19.0646 302° West  Level Estimated
09:11AM 58.1248 -19.2662 302° West  Level Estimated
09:12AM 58.1903 -19.4685 302° West  Level Estimated
09:13AM 58.2555 -19.6716 301° West  Level Estimated
09:14AM 58.3203 -19.8754 301° West  Level Estimated
09:15AM 58.3848 -20.0800 301° West  Level Estimated
09:16AM 58.4490 -20.2853 301° West  Level Estimated
09:17AM 58.5129 -20.4914 301° West  Level Estimated
09:18AM 58.5764 -20.6982 301° West  Level Estimated
09:19AM 58.6396 -20.9058 300° West  Level Estimated
09:20AM 58.7025 -21.1141 300° West  Level Estimated
09:21AM 58.7650 -21.3232 300° West  Level Estimated
09:22AM 58.8272 -21.5330 300° West  Level Estimated
09:23AM 58.8891 -21.7436 300° West  Level Estimated
09:24AM 58.9506 -21.9549 300° West  Level Estimated
09:25AM 59.0117 -22.1670 299° West  Level Estimated
09:26AM 59.0725 -22.3798 299° West  Level Estimated
09:27AM 59.1330 -22.5934 299° West  Level Estimated
09:28AM 59.1931 -22.8077 299° West  Level Estimated
09:29AM 59.2529 -23.0228 299° West  Level Estimated
09:30AM 59.3123 -23.2387 298° West  Level Estimated
09:31AM 59.3713 -23.4553 298° West  Level Estimated
09:32AM 59.4300 -23.6726 298° West  Level Estimated
09:33AM 59.4883 -23.8907 298° West  Level Estimated
09:34AM 59.5463 -24.1096 298° West  Level Estimated
09:35AM 59.6039 -24.3292 297° West  Level Estimated
09:36AM 59.6611 -24.5496 297° West  Level Estimated
09:37AM 59.7179 -24.7707 297° West  Level Estimated
09:38AM 59.7744 -24.9925 297° West  Level Estimated
09:39AM 59.8305 -25.2152 297° West  Level Estimated
09:40AM 59.8862 -25.4385 297° West  Level Estimated
09:41AM 59.9416 -25.6626 296° West  Level Estimated
09:42AM 59.9965 -25.8875 296° West  Level Estimated
09:43AM 60.0511 -26.1131 296° West  Level Estimated
09:44AM 60.1053 -26.3394 296° West  Level Estimated
09:45AM 60.1591 -26.5665 296° West  Level Estimated
09:46AM 60.2125 -26.7943 295° West  Level Estimated
09:47AM 60.2656 -27.0229 295° West  Level Estimated
09:48AM 60.3182 -27.2522 295° West  Level Estimated
09:49AM 60.3704 -27.4823 295° West  Level Estimated
09:50AM 60.4223 -27.7131 295° West  Level Estimated
09:51AM 60.4737 -27.9446 294° West  Level Estimated
09:52AM 60.5247 -28.1768 294° West  Level Estimated
09:53AM 60.5754 -28.4098 294° West  Level Estimated
09:54AM 60.6256 -28.6435 294° West  Level Estimated
09:55AM 60.6754 -28.8780 294° West  Level Estimated
09:56AM 60.7248 -29.1131 293° West  Level Estimated
09:57AM 60.7738 -29.3490 293° West  Level Estimated
09:58AM 60.8224 -29.5856 293° West  Level Estimated
09:59AM 60.8705 -29.8229 293° West  Level Estimated
10:00AM 60.9183 -30.0609 293° West  Level Estimated
10:01AM 60.9656 -30.2997 292° West  Level Estimated
10:02AM 61.0125 -30.5391 292° West  Level Estimated
10:03AM 61.0589 -30.7793 292° West  Level Estimated
10:04AM 61.1050 -31.0201 292° West  Level Estimated
10:05AM 61.1506 -31.2617 291° West  Level Estimated
10:06AM 61.1958 -31.5040 291° West  Level Estimated
10:07AM 61.2405 -31.7469 291° West  Level Estimated
10:08AM 61.2849 -31.9905 291° West  Level Estimated
10:09AM 61.3287 -32.2349 291° West  Level Estimated
10:10AM 61.3722 -32.4799 290° West  Level Estimated
10:11AM 61.4151 -32.7255 290° West  Level Estimated
10:12AM 61.4577 -32.9719 290° West  Level Estimated
10:13AM 61.4998 -33.2189 290° West  Level Estimated
10:14AM 61.5415 -33.4666 290° West  Level Estimated
10:15AM 61.5826 -33.7150 289° West  Level Estimated
10:16AM 61.6234 -33.9640 289° West  Level Estimated
10:17AM 61.6637 -34.2136 289° West  Level Estimated
10:18AM 61.7035 -34.4639 289° West  Level Estimated
10:19AM 61.7429 -34.7149 288° West  Level Estimated
10:20AM 61.7819 -34.9665 288° West  Level Estimated
10:21AM 61.8203 -35.2187 288° West  Level Estimated
10:22AM 61.8583 -35.4715 288° West  Level Estimated
10:23AM 61.8959 -35.7250 288° West  Level Estimated
10:24AM 61.9329 -35.9791 287° West  Level Estimated
10:25AM 61.9695 -36.2338 287° West  Level Estimated
10:26AM 62.0057 -36.4892 287° West  Level Estimated
10:27AM 62.0413 -36.7451 287° West  Level Estimated
10:28AM 62.0765 -37.0016 286° West  Level Estimated
10:29AM 62.1112 -37.2587 286° West  Level Estimated
10:30AM 62.1454 -37.5164 286° West  Level Estimated
10:31AM 62.1792 -37.7747 286° West  Level Estimated
10:32AM 62.2124 -38.0335 286° West  Level Estimated
10:33AM 62.2452 -38.2929 285° West  Level Estimated
10:34AM 62.2775 -38.5529 285° West  Level Estimated
10:35AM 62.3093 -38.8134 285° West  Level Estimated
10:36AM 62.3407 -39.0745 285° West  Level Estimated
10:37AM 62.3715 -39.3361 284° West  Level Estimated
10:38AM 62.4018 -39.5983 284° West  Level Estimated
10:39AM 62.4317 -39.8610 284° West  Level Estimated
10:40AM 62.4610 -40.1242 284° West  Level Estimated
10:41AM 62.4899 -40.3879 283° West  Level Estimated
10:42AM 62.5182 -40.6521 283° West  Level Estimated
10:43AM 62.5461 -40.9168 283° West  Level Estimated
10:44AM 62.5735 -41.1820 283° West  Level Estimated
10:45AM 62.6003 -41.4477 282° West  Level Estimated
10:46AM 62.6267 -41.7139 282° West  Level Estimated
10:47AM 62.6525 -41.9805 282° West  Level Estimated
10:48AM 62.6778 -42.2476 282° West  Level Estimated
10:49AM 62.7027 -42.5152 282° West  Level Estimated
10:50AM 62.7270 -42.7832 281° West  Level Estimated
10:51AM 62.7508 -43.0516 281° West  Level Estimated
10:52AM 62.7741 -43.3205 281° West  Level Estimated
10:53AM 62.7969 -43.5897 281° West  Level Estimated
10:54AM 62.8191 -43.8595 280° West  Level Estimated
10:55AM 62.8409 -44.1296 280° West  Level Estimated
10:56AM 62.8621 -44.4000 280° West  Level Estimated
10:57AM 62.8828 -44.6709 280° West  Level Estimated
10:58AM 62.9030 -44.9422 279° West  Level Estimated
10:59AM 62.9227 -45.2138 279° West  Level Estimated
11:00AM 62.9418 -45.4858 279° West  Level Estimated
11:01AM 62.9604 -45.7581 279° West  Level Estimated
11:02AM 62.9785 -46.0308 278° West  Level Estimated
11:03AM 62.9961 -46.3038 278° West  Level Estimated
11:04AM 63.0132 -46.5772 278° West  Level Estimated
11:05AM 63.0297 -46.8508 278° West  Level Estimated
11:06AM 63.0457 -47.1248 277° West  Level Estimated
11:07AM 63.0611 -47.3990 277° West  Level Estimated
11:08AM 63.0760 -47.6736 277° West  Level Estimated
11:09AM 63.0905 -47.9484 277° West  Level Estimated
11:10AM 63.1043 -48.2235 276° West  Level Estimated
11:11AM 63.1176 -48.4988 276° West  Level Estimated
11:12AM 63.1304 -48.7744 276° West  Level Estimated
11:13AM 63.1427 -49.0502 276° West  Level Estimated
11:14AM 63.1544 -49.3263 275° West  Level Estimated
11:15AM 63.1656 -49.6026 275° West  Level Estimated
11:16AM 63.1763 -49.8791 275° West  Level Estimated
11:17AM 63.1864 -50.1557 275° West  Level Estimated
11:18AM 63.1959 -50.4326 275° West  Level Estimated
11:19AM 63.2050 -50.7096 274° West  Level Estimated
11:20AM 63.2135 -50.9869 274° West  Level Estimated
11:21AM 63.2215 -51.2642 274° West  Level Estimated
11:22AM 63.2289 -51.5418 274° West  Level Estimated
11:23AM 63.2357 -51.8194 273° West  Level Estimated
11:24AM 63.2421 -52.0972 273° West  Level Estimated
11:25AM 63.2479 -52.3751 273° West  Level Estimated
11:26AM 63.2531 -52.6531 273° West  Level Estimated
11:27AM 63.2578 -52.9312 272° West  Level Estimated
11:28AM 63.2620 -53.2094 272° West  Level Estimated
11:29AM 63.2656 -53.4877 272° West  Level Estimated
11:30AM 63.2687 -53.7660 272° West  Level Estimated
11:31AM 63.2712 -54.0444 271° West  Level Estimated
11:32AM 63.2732 -54.3228 271° West  Level Estimated
11:33AM 63.2747 -54.6012 271° West  Level Estimated
11:34AM 63.2756 -54.8797 271° West  Level Estimated
11:35AM 63.2760 -55.1582 270° West  Level Estimated
11:36AM 63.2758 -55.4367 270° West  Level Estimated
11:37AM 63.2751 -55.7152 270° West  Level Estimated
11:38AM 63.2738 -55.9937 270° West  Level Estimated
11:39AM 63.2720 -56.2721 269° West  Level Estimated
11:40AM 63.2696 -56.5505 269° West  Level Estimated
11:41AM 63.2667 -56.8289 269° West  Level Estimated
11:42AM 63.2633 -57.1072 269° West  Level Estimated
11:43AM 63.2593 -57.3854 268° West  Level Estimated
11:44AM 63.2548 -57.6635 268° West  Level Estimated
11:45AM 63.2497 -57.9415 268° West  Level Estimated
11:46AM 63.2441 -58.2195 268° West  Level Estimated
11:47AM 63.2379 -58.4973 267° West  Level Estimated
11:48AM 63.2312 -58.7750 267° West  Level Estimated
11:49AM 63.2240 -59.0526 267° West  Level Estimated
11:50AM 63.2162 -59.3300 267° West  Level Estimated
11:51AM 63.2079 -59.6073 266° West  Level Estimated
11:52AM 63.1991 -59.8844 266° West  Level Estimated
11:53AM 63.1897 -60.1613 266° West  Level Estimated
11:54AM 63.1797 -60.4380 266° West  Level Estimated
11:55AM 63.1693 -60.7146 265° West  Level Estimated
11:56AM 63.1582 -60.9909 265° West  Level Estimated
11:57AM 63.1467 -61.2671 265° West  Level Estimated
11:58AM 63.1346 -61.5430 265° West  Level Estimated
11:59AM 63.1214 -61.8310 264° West  Level Estimated
12:00PM 63.1076 -62.1187 264° West  Level Estimated
12:01PM 63.0933 -62.4062 264° West  Level Estimated
12:02PM 63.0783 -62.6934 264° West  Level Estimated
12:03PM 63.0632 -62.9733 263° West  Level Estimated
12:04PM 63.0475 -63.2530 263° West  Level Estimated
12:05PM 63.0313 -63.5323 263° West  Level Estimated
12:06PM 63.0145 -63.8113 263° West  Level Estimated
12:07PM 62.9971 -64.0900 262° West  Level Estimated
12:08PM 62.9793 -64.3684 262° West  Level Estimated
12:09PM 62.9608 -64.6464 262° West  Level Estimated
12:10PM 62.9418 -64.9241 262° West  Level Estimated
12:11PM 62.9223 -65.2014 261° West  Level Estimated
12:12PM 62.9022 -65.4783 261° West  Level Estimated
12:13PM 62.8816 -65.7549 261° West  Level Estimated
12:14PM 62.8605 -66.0311 261° West  Level Estimated
12:15PM 62.8388 -66.3068 260° West  Level Estimated
12:16PM 62.8166 -66.5821 260° West  Level Estimated
12:17PM 62.7938 -66.8570 260° West  Level Estimated
12:18PM 62.7705 -67.1315 260° West  Level Estimated
12:19PM 62.7467 -67.4056 259° West  Level Estimated
12:20PM 62.7223 -67.6792 259° West  Level Estimated
12:21PM 62.6974 -67.9523 259° West  Level Estimated
12:22PM 62.6720 -68.2250 259° West  Level Estimated
12:23PM 62.6460 -68.4972 258° West  Level Estimated
12:24PM 62.6195 -68.7690 258° West  Level Estimated
12:25PM 62.5925 -69.0402 258° West  Level Estimated
12:26PM 62.5650 -69.3109 258° West  Level Estimated
12:27PM 62.5369 -69.5812 257° West  Level Estimated
12:28PM 62.5083 -69.8509 257° West  Level Estimated
12:29PM 62.4792 -70.1201 257° West  Level Estimated
12:30PM 62.4496 -70.3888 257° West  Level Estimated
12:31PM 62.4195 -70.6569 256° West  Level Estimated
12:32PM 62.3889 -70.9245 256° West  Level Estimated
12:33PM 62.3577 -71.1915 256° West  Level Estimated
12:34PM 62.3260 -71.4580 256° West  Level Estimated
12:35PM 62.2939 -71.7239 256° West  Level Estimated
12:36PM 62.2612 -71.9893 255° West  Level Estimated
12:37PM 62.2280 -72.2540 255° West  Level Estimated
12:38PM 62.1943 -72.5182 255° West  Level Estimated
12:39PM 62.1601 -72.7818 255° West  Level Estimated
12:40PM 62.1254 -73.0448 254° West  Level Estimated
12:41PM 62.0902 -73.3072 254° West  Level Estimated
12:42PM 62.0546 -73.5689 254° West  Level Estimated
12:43PM 62.0184 -73.8301 254° West  Level Estimated
12:44PM 61.9817 -74.0906 253° West  Level Estimated
12:45PM 61.9445 -74.3505 253° West  Level Estimated
12:46PM 61.9069 -74.6098 253° West  Level Estimated
12:47PM 61.8688 -74.8684 253° West  Level Estimated
12:48PM 61.8301 -75.1264 253° West  Level Estimated
12:49PM 61.7910 -75.3837 252° West  Level Estimated
12:50PM 61.7515 -75.6403 252° West  Level Estimated
12:51PM 61.7114 -75.8963 252° West  Level Estimated
12:52PM 61.6709 -76.1517 252° West  Level Estimated
12:53PM 61.6298 -76.4063 251° West  Level Estimated
12:54PM 61.5884 -76.6603 251° West  Level Estimated
12:55PM 61.5464 -76.9136 251° West  Level Estimated
12:56PM 61.5040 -77.1662 251° West  Level Estimated
12:57PM 61.4611 -77.4181 250° West  Level Estimated
12:58PM 61.4178 -77.6693 250° West  Level Estimated
12:59PM 61.3740 -77.9199 250° West  Level Estimated
01:00PM 61.3297 -78.1697 250° West  Level Estimated
01:01PM 61.2850 -78.4188 250° West  Level Estimated
01:02PM 61.2398 -78.6672 249° West  Level Estimated
01:03PM 61.1941 -78.9149 249° West  Level Estimated
01:04PM 61.1481 -79.1618 249° West  Level Estimated
01:05PM 61.1015 -79.4081 249° West  Level Estimated
01:06PM 61.0546 -79.6536 249° West  Level Estimated
01:07PM 61.0071 -79.8983 248° West  Level Estimated
01:08PM 60.9593 -80.1424 248° West  Level Estimated
01:09PM 60.9110 -80.3857 248° West  Level Estimated
01:10PM 60.8622 -80.6283 248° West  Level Estimated
01:11PM 60.8130 -80.8701 247° West  Level Estimated
01:12PM 60.7634 -81.1112 247° West  Level Estimated
01:13PM 60.7134 -81.3515 247° West  Level Estimated
01:14PM 60.6629 -81.5911 247° West  Level Estimated
01:15PM 60.6120 -81.8299 247° West  Level Estimated
01:16PM 60.5607 -82.0680 246° West  Level Estimated
01:17PM 60.5089 -82.3053 246° West  Level Estimated
01:18PM 60.4568 -82.5418 246° West  Level Estimated
01:19PM 60.4042 -82.7776 246° West  Level Estimated
01:20PM 60.3512 -83.0127 246° West  Level Estimated
01:21PM 60.2978 -83.2469 245° Southwest  Level Estimated
01:22PM 60.2440 -83.4804 245° Southwest  Level Estimated
01:23PM 60.1897 -83.7131 245° Southwest  Level Estimated
01:24PM 60.1351 -83.9451 245° Southwest  Level Estimated
01:25PM 60.0801 -84.1763 245° Southwest  Level Estimated
01:26PM 60.0246 -84.4067 244° Southwest  Level Estimated
01:27PM 59.9688 -84.6363 244° Southwest  Level Estimated
01:28PM 59.9125 -84.8652 244° Southwest  Level Estimated
01:29PM 59.8559 -85.0933 244° Southwest  Level Estimated
01:30PM 59.7989 -85.3206 244° Southwest  Level Estimated
01:31PM 59.7415 -85.5471 243° Southwest  Level Estimated
01:32PM 59.6837 -85.7729 243° Southwest  Level Estimated
01:33PM 59.6255 -85.9978 243° Southwest  Level Estimated
01:34PM 59.5669 -86.2220 243° Southwest  Level Estimated
01:35PM 59.5079 -86.4454 243° Southwest  Level Estimated
01:36PM 59.4486 -86.6681 242° Southwest  Level Estimated
01:37PM 59.3889 -86.8899 242° Southwest  Level Estimated
01:38PM 59.3288 -87.1109 242° Southwest  Level Estimated
01:39PM 59.2683 -87.3312 242° Southwest  Level Estimated
01:40PM 59.2075 -87.5507 242° Southwest  Level Estimated
01:41PM 59.1463 -87.7694 241° Southwest  Level Estimated
01:42PM 59.0847 -87.9874 241° Southwest  Level Estimated
01:43PM 59.0228 -88.2045 241° Southwest  Level Estimated
01:44PM 58.9605 -88.4209 241° Southwest  Level Estimated
01:45PM 58.8978 -88.6364 241° Southwest  Level Estimated
01:46PM 58.8348 -88.8512 241° Southwest  Level Estimated
01:47PM 58.7714 -89.0652 240° Southwest  Level Estimated
01:48PM 58.7077 -89.2785 240° Southwest  Level Estimated
01:49PM 58.6437 -89.4909 240° Southwest  Level Estimated
01:50PM 58.5792 -89.7026 240° Southwest  Level Estimated
01:51PM 58.5145 -89.9135 240° Southwest  Level Estimated
01:52PM 58.4493 -90.1236 239° Southwest  Level Estimated
01:53PM 58.3839 -90.3329 239° Southwest  Level Estimated
01:54PM 58.3181 -90.5415 239° Southwest  Level Estimated
01:55PM 58.2520 -90.7493 239° Southwest  Level Estimated
01:56PM 58.1855 -90.9563 239° Southwest  Level Estimated
01:57PM 58.1187 -91.1625 239° Southwest  Level Estimated
01:58PM 58.0516 -91.3680 238° Southwest  Level Estimated
01:59PM 57.9841 -91.5726 238° Southwest  Level Estimated
02:00PM 57.9163 -91.7766 238° Southwest  Level Estimated
02:01PM 57.8482 -91.9797 238° Southwest  Level Estimated
02:02PM 57.7798 -92.1821 238° Southwest  Level Estimated
02:03PM 57.7110 -92.3837 238° Southwest  Level Estimated
02:04PM 57.6419 -92.5845 237° Southwest  Level Estimated
02:05PM 57.5725 -92.7846 237° Southwest  Level Estimated
02:05PM 62.4833 -104.4333 236° Southwest 490 564 36,000  Level Edmonton Center
02:06PM 57.5028 -92.9839 237° Southwest  Level Estimated
02:06PM 62.3667 -104.5833 211° Southwest 490 564 36,000  Level Edmonton Center
02:07PM 57.4328 -93.1824 237° Southwest  Level Estimated
02:07PM 62.2667 -104.7667 221° Southwest 490 564 36,000  Level Edmonton Center
02:08PM 57.3624 -93.3802 237° Southwest  Level Estimated
02:08PM 62.1500 -104.9500 216° Southwest 490 564 36,000  Level Edmonton Center
02:09PM 57.2918 -93.5773 236° Southwest  Level Estimated
02:09PM 62.0500 -105.1000 215° Southwest 480 552 36,000  Level Edmonton Center
02:10PM 57.2209 -93.7736 236° Southwest  Level Estimated
02:10PM 61.9333 -105.2833 217° Southwest 480 552 36,000  Level Edmonton Center
02:11PM 57.1496 -93.9691 236° Southwest  Level Estimated
02:11PM 61.8167 -105.4667 217° Southwest 480 552 36,000  Level Edmonton Center
02:12PM 61.7000 -105.6000 208° Southwest 480 552 36,000  Level Edmonton Center
02:13PM 61.6000 -105.7833 221° Southwest 480 552 36,000  Level Edmonton Center
02:14PM 61.4833 -105.9167 209° Southwest 480 552 36,000  Level Edmonton Center
02:15PM 61.3833 -106.0833 219° Southwest 480 552 36,000  Level Edmonton Center
02:16PM 61.2667 -106.2667 217° Southwest 480 552 36,000  Level Edmonton Center
02:17PM 61.1333 -106.4333 211° Southwest 480 552 36,000  Level Edmonton Center
02:18PM 61.0333 -106.5667 213° Southwest 480 552 36,000  Level Edmonton Center
02:19PM 60.9167 -106.7333 215° Southwest 480 552 36,000  Level Edmonton Center
02:20PM 60.8167 -106.8667 213° Southwest 480 552 36,000  Level Edmonton Center
02:21PM 60.6833 -107.0333 211° Southwest 480 552 36,000  Level Edmonton Center
02:22PM 60.5833 -107.1667 213° Southwest 480 552 36,000  Level Edmonton Center
02:23PM 60.4667 -107.3333 215° Southwest 480 552 36,000  Level Edmonton Center
02:24PM 60.3667 -107.5000 220° Southwest 480 552 36,000  Level Edmonton Center
02:25PM 60.2333 -107.6167 203° Southwest 480 552 36,000  Level Edmonton Center
02:26PM 60.1333 -107.7833 220° Southwest 480 552 36,000  Level Edmonton Center
02:27PM 60.0167 -107.9167 210° Southwest 480 552 36,000  Level Edmonton Center
02:28PM 59.9000 -108.0667 213° Southwest 480 552 36,000  Level Edmonton Center
02:29PM 59.7833 -108.2333 216° Southwest 480 552 36,000  Level Edmonton Center
02:30PM 59.6667 -108.3833 213° Southwest 480 552 36,000  Level Edmonton Center
02:31PM 59.5500 -108.5167 210° Southwest 480 552 36,000  Level Edmonton Center
02:32PM 59.4500 -108.6667 217° Southwest 470 541 36,000  Level Edmonton Center
02:33PM 59.3333 -108.8500 219° Southwest 470 541 36,000  Level Edmonton Center
02:34PM 59.2333 -109.0000 218° Southwest 470 541 36,000  Level Edmonton Center
02:35PM 59.1500 -109.1667 226° Southwest 470 541 36,000  Level Edmonton Center
02:36PM 59.0333 -109.3500 219° Southwest 470 541 36,000  Level Edmonton Center
02:37PM 58.9333 -109.5000 218° Southwest 470 541 36,000  Level Edmonton Center
02:38PM 58.8167 -109.6500 214° Southwest 470 541 36,000  Level Edmonton Center
02:39PM 58.7333 -109.8000 223° Southwest 470 541 36,000  Level Edmonton Center
02:40PM 58.6167 -109.9833 219° Southwest 470 541 36,000  Level Edmonton Center
02:41PM 58.5167 -110.1333 218° Southwest 470 541 36,000  Level Edmonton Center
02:42PM 58.4000 -110.2833 214° Southwest 470 541 36,000  Level Edmonton Center
02:43PM 58.3000 -110.4500 221° Southwest 470 541 36,000  Level Edmonton Center
02:44PM 58.2000 -110.6000 218° Southwest 470 541 36,000  Level Edmonton Center
02:45PM 58.0833 -110.7667 217° Southwest 470 541 36,000  Level Edmonton Center
02:46PM 57.9833 -110.9167 219° Southwest 480 552 36,000  Level Edmonton Center
02:47PM 57.8833 -111.0667 219° Southwest 480 552 36,000  Level Edmonton Center
02:48PM 57.7667 -111.2333 217° Southwest 480 552 36,000  Level Edmonton Center
02:49PM 57.6667 -111.3833 219° Southwest 470 541 36,000  Level Edmonton Center
02:50PM 57.5667 -111.5167 216° Southwest 470 541 36,000  Level Edmonton Center
02:51PM 57.4500 -111.6500 212° Southwest 460 529 36,000  Level Edmonton Center
02:52PM 57.3500 -111.8167 222° Southwest 460 529 36,000  Level Edmonton Center
02:53PM 57.2500 -111.9667 219° Southwest 460 529 36,000  Level Edmonton Center
02:54PM 57.1333 -112.1000 212° Southwest 470 541 36,000  Level Edmonton Center
02:55PM 57.0333 -112.2333 216° Southwest 470 541 36,000  Level Edmonton Center
02:56PM 56.9167 -112.4000 218° Southwest 470 541 36,000  Level Edmonton Center
02:57PM 56.8333 -112.5333 221° Southwest 470 541 36,000  Level Edmonton Center
02:58PM 56.7167 -112.6667 212° Southwest 470 541 36,000  Level Edmonton Center
02:59PM 56.6000 -112.8333 218° Southwest 470 541 36,000  Level Edmonton Center
03:00PM 56.5000 -112.9667 216° Southwest 470 541 36,000  Level Edmonton Center
03:01PM 56.3833 -113.0833 209° Southwest 470 541 36,000  Level Edmonton Center
03:02PM 56.2833 -113.2167 217° Southwest 470 541 36,000  Level Edmonton Center
03:03PM 56.1667 -113.3833 219° Southwest 470 541 36,000  Level Edmonton Center
03:04PM 56.0667 -113.5167 217° Southwest 480 552 36,000  Level Edmonton Center
03:05PM 55.9500 -113.6667 216° Southwest 470 541 36,000  Level Edmonton Center
03:06PM 55.8333 -113.8000 213° Southwest 470 541 36,000  Level Edmonton Center
03:07PM 55.7333 -113.9167 213° Southwest 470 541 36,000  Level Edmonton Center
03:13PM 55.1613 -114.6195 214° Southwest 468 539 36,000  Level FlightAware ADS-B (CYXD)
03:14PM 54.9492 -114.8713 214° Southwest 467 537 36,000  Level FlightAware ADS-B (CYXD)
03:15PM 54.8730 -114.9617 214° Southwest 468 539 36,000  Level FlightAware ADS-B (CYXD)
03:16PM 54.8130 -115.0308 214° Southwest 469 540 36,000  Level FlightAware ADS-B (CYXD)
03:16PM 54.7574 -115.0959 214° Southwest 470 541 36,000  Level FlightAware ADS-B (CYXD)
03:17PM 54.6753 -115.1921 214° Southwest 469 540 36,000  Level FlightAware ADS-B (CYXD)
03:18PM 54.5969 -115.2836 214° Southwest 469 540 36,000  Level FlightAware ADS-B (CYXD)
03:19PM 54.5352 -115.3542 214° Southwest 470 541 36,000  Level FlightAware ADS-B (CYXD)
03:19PM 54.4241 -115.4805 214° Southwest 470 541 36,000  Level FlightAware ADS-B (CYXD)
03:20PM 54.3167 -115.5833 214° Southwest 460 529 36,000  Level Edmonton Center
03:21PM 54.2333 -115.7167 223° Southwest 460 529 36,000  Level Edmonton Center
03:22PM 54.1167 -115.8500 214° Southwest 470 541 36,000  Level Edmonton Center
03:23PM 54.0000 -115.9667 210° Southwest 470 541 36,000  Level Edmonton Center
03:24PM 53.8667 -116.0833 207° Southwest 470 541 36,000  Level Edmonton Center
03:25PM 53.7667 -116.2000 215° Southwest 470 541 36,000  Level Edmonton Center
03:26PM 53.6667 -116.2833 206° Southwest 480 552 36,000  Level Edmonton Center
03:27PM 53.5333 -116.4167 211° Southwest 470 541 36,000  Level Edmonton Center
03:28PM 53.4167 -116.5000 203° Southwest 470 541 36,000  Level Edmonton Center
03:29PM 53.3000 -116.6333 214° Southwest 470 541 36,000  Level Edmonton Center
03:30PM 53.1833 -116.7167 203° Southwest 470 541 36,000  Level Edmonton Center
03:31PM 53.0667 -116.8500 214° Southwest 470 541 36,000  Level Edmonton Center
03:32PM 52.9667 -116.9333 207° Southwest 470 541 36,000  Level Edmonton Center
03:33PM 52.8333 -117.0667 211° Southwest 470 541 36,000  Level Edmonton Center
03:34PM 52.7333 -117.1500 207° Southwest 470 541 36,000  Level Edmonton Center
03:35PM 52.6167 -117.2667 211° Southwest 470 541 36,000  Level Edmonton Center
03:36PM 52.5500 -117.2833 189° South 470 541 36,000  Level Vancouver Center
03:37PM 52.4333 -117.3833 208° Southwest 480 552 36,000  Level Vancouver Center
03:38PM 52.3167 -117.4833 208° Southwest 480 552 36,000  Level Vancouver Center
03:39PM 52.2000 -117.5833 208° Southwest 480 552 36,000  Level Vancouver Center
03:40PM 52.0833 -117.7000 212° Southwest 480 552 36,000  Level Vancouver Center
03:41PM 51.9667 -117.8000 208° Southwest 480 552 36,000  Level Vancouver Center
03:42PM 51.8500 -117.9000 208° Southwest 480 552 36,000  Level Vancouver Center
03:43PM 51.7333 -118.0000 208° Southwest 480 552 36,000  Level Vancouver Center
03:44PM 51.6167 -118.1167 212° Southwest 480 552 36,000  Level Vancouver Center
03:45PM 51.5000 -118.2167 208° Southwest 480 552 36,000  Level Vancouver Center
03:46PM 51.3833 -118.3167 208° Southwest 480 552 36,000  Level Vancouver Center
03:47PM 51.2667 -118.4000 204° Southwest 480 552 36,000  Level Vancouver Center
03:48PM 51.1500 -118.5000 208° Southwest 480 552 36,000  Level Vancouver Center
03:49PM 51.0333 -118.6167 212° Southwest 480 552 36,000  Level Vancouver Center
03:50PM 50.9167 -118.7167 208° Southwest 480 552 36,000  Level Vancouver Center
03:51PM 50.8000 -118.8000 204° Southwest 480 552 36,000  Level Vancouver Center
03:52PM 50.6667 -118.9000 205° Southwest 480 552 36,000  Level Vancouver Center
03:53PM 50.5500 -118.9667 200° South 480 552 36,000  Level Vancouver Center
03:54PM 50.4167 -119.0333 198° South 480 552 36,000  Level Vancouver Center
03:55PM 50.3000 -119.1000 200° South 480 552 36,000 420 Level Vancouver Center
03:56PM 50.1667 -119.1333 189° South 490 564 36,900 480 Climbing Vancouver Center
03:57PM 50.0333 -119.2000 198° South 490 564 37,000  Climbing Vancouver Center
03:59PM 49.7667 -119.2667 189° South 480 552 37,000  Level Vancouver Center
04:00PM 49.6333 -119.3167 194° South 480 552 37,000  Level Vancouver Center
04:05PM 48.9477 -119.5930 193° South 483 556 37,000  Level FlightAware ADS-B
04:06PM 48.8784 -119.6170 193° South 484 557 37,000  Level FlightAware ADS-B
04:06PM 48.8117 -119.6400 193° South 483 556 37,000  Level FlightAware ADS-B
04:07PM 48.7418 -119.6650 193° South 482 555 37,000  Level FlightAware ADS-B
04:07PM 48.6752 -119.6880 193° South 481 554 37,000  Level FlightAware ADS-B
04:08PM 48.6408 -119.6998 193° South 480 552 37,000  Level FlightAware ADS-B (CYWH)
04:08PM 48.6103 -119.7100 193° South 481 554 37,000  Level FlightAware ADS-B
04:08PM 48.5655 -119.7260 193° South 481 554 37,000  Level FlightAware ADS-B (CYVR)
04:08PM 48.5454 -119.7330 193° South 481 554 37,000  Level FlightAware ADS-B
04:09PM 48.4962 -119.7497 193° South 481 554 37,000  Level FlightAware ADS-B (CYWH)
04:09PM 48.4748 -119.7570 193° South 481 554 37,000  Level FlightAware ADS-B
04:09PM 48.4082 -119.7790 193° South 480 552 37,000  Level FlightAware ADS-B
04:10PM 48.3411 -119.8020 193° South 480 552 37,000  Level FlightAware ADS-B
04:10PM 48.3399 -119.8032 193° South 480 552 37,000  Level FlightAware ADS-B (CYWH)
04:10PM 48.2753 -119.8250 193° South 481 554 37,000  Level FlightAware ADS-B
04:11PM 48.2096 -119.8470 193° South 483 556 37,000  Level FlightAware ADS-B
04:11PM 48.1439 -119.8700 193° South 483 556 37,000  Level FlightAware ADS-B
04:12PM 48.0771 -119.8920 193° South 484 557 37,000  Level FlightAware ADS-B
04:12PM 48.0448 -119.9035 193° South 481 554 37,000  Level FlightAware ADS-B (CYVR)
04:12PM 48.0103 -119.9150 193° South 484 557 37,000  Level FlightAware ADS-B
04:13PM 47.9430 -119.9370 193° South 484 557 37,000  Level FlightAware ADS-B
04:13PM 48.0448 -119.9035 193° South 481 554 37,000  Level FlightAware ADS-B (CYVR)
04:13PM 47.8773 -119.9590 193° South 484 557 37,000  Level FlightAware ADS-B
04:14PM 47.8221 -119.9784 193° South 484 557 37,000  Level FlightAware ADS-B (CYWH)
04:14PM 47.8113 -119.9820 193° South 484 557 37,000  Level FlightAware ADS-B
04:14PM 47.7452 -120.0040 193° South 485 558 37,000  Level FlightAware ADS-B
04:14PM 47.7506 -120.0018 193° South 485 558 37,000  Level FlightAware ADS-B (CYWH)
04:15PM 47.6777 -120.0270 193° South 484 557 37,000  Level FlightAware ADS-B
04:15PM 47.6117 -120.0480 193° South 485 558 37,000  Level FlightAware ADS-B
04:15PM 47.6056 -120.0506 193° South 485 558 37,000  Level FlightAware ADS-B (CYWH)
04:16PM 47.5459 -120.0700 193° South 486 559 37,000  Level FlightAware ADS-B
04:16PM 47.4794 -120.0920 193° South 486 559 37,000  Level FlightAware ADS-B
04:17PM 47.4132 -120.1140 192° South 485 558 37,000  Level FlightAware ADS-B
04:17PM 47.3475 -120.1360 193° South 484 557 37,000  Level FlightAware ADS-B
04:18PM 47.2815 -120.1570 192° South 485 558 37,000  Level FlightAware ADS-B
04:18PM 47.2152 -120.1790 193° South 488 562 37,000  Level FlightAware ADS-B
04:19PM 47.1485 -120.2010 193° South 488 562 37,000  Level FlightAware ADS-B
04:19PM 47.0823 -120.2220 192° South 486 559 37,000  Level FlightAware ADS-B
04:20PM 47.0154 -120.2440 192° South 487 560 37,000  Level FlightAware ADS-B
04:20PM 46.9481 -120.2670 193° South 488 562 37,000  Level FlightAware ADS-B
04:21PM 46.8784 -120.2890 192° South 487 560 37,000  Level FlightAware ADS-B
04:22PM 46.8028 -120.3130 192° South 486 559 37,000  Level FlightAware ADS-B
04:22PM 46.7357 -120.3350 192° South 487 560 37,000  Level FlightAware ADS-B
04:23PM 46.6656 -120.3570 192° South 488 562 37,000  Level FlightAware ADS-B
04:23PM 46.5993 -120.3780 192° South 487 560 37,000  Level FlightAware ADS-B
04:24PM 46.5214 -120.4030 192° South 488 562 37,000  Level FlightAware ADS-B
04:24PM 46.4339 -120.4310 192° South 487 560 37,000  Level FlightAware ADS-B
04:26PM 46.2773 -120.4800 192° South 487 560 37,000  Level FlightAware ADS-B
04:26PM 46.1860 -120.5096 193° South 487 560 37,000  Level FlightAware ADS-B (KSLE)
04:27PM 46.1399 -120.5240 192° South 487 560 37,000  Level FlightAware ADS-B
04:27PM 46.1039 -120.5352 192° South 487 560 37,000  Level FlightAware ADS-B (KSLE)
04:28PM 46.0123 -120.5644 192° South 491 565 37,000  Level FlightAware ADS-B (KSLE)
04:28PM 45.9276 -120.5907 192° South 490 564 37,000  Level FlightAware ADS-B (KSLE)
04:29PM 45.8341 -120.6197 192° South 490 564 37,000  Level FlightAware ADS-B (KSLE)
04:30PM 45.7459 -120.6470 192° South 489 563 37,000  Level FlightAware ADS-B (KSLE)
04:30PM 45.6775 -120.6681 192° South 489 563 37,000  Level FlightAware ADS-B (KSLE)
04:31PM 45.5806 -120.6977 192° South 491 565 37,000  Level FlightAware ADS-B (KSLE)
04:32PM 45.3994 -120.7535 192° South 492 566 37,000  Level FlightAware ADS-B (KSLE)
04:33PM 45.3132 -120.7800 192° South 489 563 37,000  Level FlightAware ADS-B (KSLE)
04:33PM 45.2203 -120.8083 192° South 489 563 37,000  Level FlightAware ADS-B (KSLE)
04:34PM 45.1239 -120.8372 192° South 490 564 37,000  Level FlightAware ADS-B (KSLE)
04:35PM 45.0389 -120.8633 192° South 491 565 37,000  Level FlightAware ADS-B (KSLE)
04:39PM 44.5449 -121.0107 192° South 492 566 37,000  Level FlightAware ADS-B (KSLE)
04:39PM 44.4548 -121.0378 192° South 496 571 37,000  Level FlightAware ADS-B (KSLE)
04:40PM 44.3673 -121.0637 192° South 494 568 37,000  Level FlightAware ADS-B (KSLE)
04:41PM 44.2891 -121.0866 192° South 490 564 37,000  Level FlightAware ADS-B (KSLE)
04:43PM 43.9275 -121.1918 192° South 489 563 37,000  Level FlightAware ADS-B (KSLE)
04:44PM 43.8455 -121.2155 192° South 486 559 37,000  Level FlightAware ADS-B (KSLE)
04:45PM 43.7460 -121.2444 192° South 492 566 37,000  Level FlightAware ADS-B (KSLE)
04:45PM 43.6673 -121.2670 192° South 496 571 37,000  Level FlightAware ADS-B (KSLE)
04:46PM 43.5707 -121.2949 192° South 494 568 37,000  Level FlightAware ADS-B (KSLE)
04:47PM 43.4755 -121.3225 192° South 490 564 37,000  Level FlightAware ADS-B (KSLE)
04:47PM 43.3898 -121.3471 192° South 488 562 37,000  Level FlightAware ADS-B (KSLE)
04:49PM 43.2211 -121.3936 192° South 488 562 37,000  Level Seattle Center
04:50PM 43.0639 -121.4381 192° South 482 555 37,000  Level Seattle Center
04:51PM 42.9339 -121.4753 192° South 479 551 37,000  Level Seattle Center
04:52PM 42.8031 -121.5133 192° South 480 552 37,000  Level Seattle Center
04:53PM 42.6747 -121.5489 192° South 474 545 37,000  Level Seattle Center
04:54PM 42.5444 -121.5842 191° South 475 547 37,000  Level Seattle Center
04:55PM 42.4161 -121.6200 192° South 473 544 37,000  Level Seattle Center
04:56PM 42.2872 -121.6569 192° South 471 542 37,000  Level Seattle Center
04:57PM 42.1583 -121.6922 191° South 468 539 37,000  Level Seattle Center
04:58PM 42.0281 -121.7272 191° South 468 539 37,000  Level Seattle Center
04:59PM 41.8978 -121.7631 192° South 468 539 37,000  Level Seattle Center
05:00PM 41.7675 -121.7986 192° South 471 542 37,000  Level Seattle Center
05:06PM 40.9069 -122.0517 193° South 474 545 37,000  Level FlightAware ADS-B (KAHC)
05:07PM 40.8751 -122.0613 192° South 472 543 37,000  Level FlightAware ADS-B
05:08PM 40.7364 -122.1028 193° South 470 541 37,000  Level FlightAware ADS-B (KAHC)
05:08PM 40.6732 -122.1218 193° South 469 540 37,000  Level FlightAware ADS-B (KAHC)
05:09PM 40.6091 -122.1408 193° South 468 539 37,000  Level FlightAware ADS-B (KAHC)
05:09PM 40.5465 -122.1597 193° South 466 536 37,000  Level FlightAware ADS-B (KAHC)
05:10PM 40.4793 -122.1798 193° South 465 535 37,000  Level FlightAware ADS-B (KAHC)
05:10PM 40.4167 -122.1984 193° South 463 533 37,000  Level FlightAware ADS-B (KAHC)
05:11PM 40.3532 -122.2169 193° South 461 531 37,000  Level FlightAware ADS-B (KAHC)
05:11PM 40.2741 -122.2401 193° South 459 528 37,000  Level FlightAware ADS-B (KAHC)
05:12PM 40.2282 -122.2535 193° South 458 527 37,000  Level FlightAware ADS-B (KAHC)
05:12PM 40.1935 -122.2640 193° South 458 527 37,000  Level FlightAware ADS-B (KAHC)
05:13PM 40.1093 -122.2891 192° South 458 527 37,000  Level FlightAware ADS-B
05:14PM 39.9967 -122.3218 192° South 458 527 37,000  Level FlightAware ADS-B
05:15PM 39.9115 -122.3466 192° South 457 526 37,000  Level FlightAware ADS-B
05:15PM 39.8211 -122.3730 192° South 456 525 37,000  Level FlightAware ADS-B
05:16PM 39.7390 -122.3970 192° South 457 526 37,000  Level FlightAware ADS-B
05:18PM 39.5315 -122.4575 192° South 456 525 37,000  Level FlightAware ADS-B
05:18PM 39.4496 -122.4807 192° South 457 526 37,000  Level FlightAware ADS-B
05:19PM 39.3653 -122.5048 192° South 455 524 37,000  Level FlightAware ADS-B
05:20PM 39.2846 -122.5278 192° South 453 521 37,000  Level FlightAware ADS-B
05:20PM 39.2015 -122.5516 191° South 453 521 37,000 -780 Level FlightAware ADS-B
05:21PM 39.1171 -122.5676 186° South 462 532 36,000 -2,280 Descending FlightAware ADS-B
05:22PM 39.0281 -122.5775 184° South 460 529 34,000 -2,640 Descending FlightAware ADS-B
05:22PM 38.9454 -122.5847 184° South 444 511 32,500 -2,460 Descending FlightAware ADS-B
05:23PM 38.8739 -122.5913 183° South 439 505 30,800 -3,060 Descending FlightAware ADS-B
05:24PM 38.7910 -122.5982 183° South 442 509 28,500 -3,300 Descending FlightAware ADS-B
05:24PM 38.7106 -122.6046 183° South 446 513 26,400 -2,580 Descending FlightAware ADS-B
05:26PM 38.5385 -122.6190 183° South 446 513 23,300 -2,700 Descending FlightAware ADS-B
05:26PM 38.4544 -122.6261 183° South 453 521 21,000 -3,420 Descending FlightAware ADS-B
05:27PM 38.3531 -122.6348 183° South 449 517 18,800 -2,520 Descending FlightAware ADS-B
05:28PM 38.2734 -122.6417 183° South 443 510 17,700 -2,040 Descending FlightAware ADS-B
05:28PM 38.2062 -122.6474 183° South 437 503 16,100 -2,340 Descending FlightAware ADS-B
05:29PM 38.1313 -122.6532 183° South 422 486 14,600 -2,040 Descending FlightAware ADS-B
05:30PM 38.0613 -122.6591 183° South 404 465 13,400 -1,200 Descending FlightAware ADS-B
05:30PM 37.9806 -122.6650 183° South 383 441 13,000 -600 Descending FlightAware ADS-B
05:31PM 37.9152 -122.6425 151° Southeast 352 405 12,700 -180 Descending FlightAware ADS-B (KPAO)
05:31PM 37.8560 -122.5903 144° Southeast 355 409 12,800  Climbing FlightAware ADS-B (KPAO)
05:32PM 37.8447 -122.5790 144° Southeast 353 406 12,700 -1,440 Descending FlightAware ADS-B
05:32PM 37.8080 -122.5451 144° Southeast 346 398 11,900 -1,500 Descending FlightAware ADS-B (KPAO)
05:33PM 37.7659 -122.5070 144° Southeast 343 395 11,200 -1,200 Descending FlightAware ADS-B
05:33PM 37.7298 -122.4736 144° Southeast 333 383 10,700 -840 Descending FlightAware ADS-B (KPAO)
05:33PM 37.7203 -122.4660 144° Southeast 342 394 10,700 120 Level FlightAware ADS-B
05:34PM 37.6735 -122.4230 144° Southeast 304 350 10,800 60 Climbing FlightAware ADS-B
05:34PM 37.6395 -122.3930 144° Southeast 288 331 10,800  Level FlightAware ADS-B
05:35PM 37.6200 -122.3760 151° Southeast 286 329 10,800  Level FlightAware ADS-B
05:35PM 37.6188 -122.3753 153° Southeast 285 328 10,800  Level FlightAware ADS-B (KPAO)
05:35PM 37.6084 -122.3690 154° Southeast 284 327 10,800 -1,080 Level FlightAware ADS-B
05:35PM 37.5740 -122.3470 153° Southeast 264 304 10,200 -1,440 Descending FlightAware ADS-B
05:35PM 37.5713 -122.3451 153° Southeast 263 303 10,000 -1,920 Descending FlightAware ADS-B (KPAO)
05:36PM 37.5570 -122.3360 153° Southeast 260 299 9,700 -1,800 Descending FlightAware ADS-B
05:36PM 37.5481 -122.3307 153° Southeast 259 298 9,400 -2,040 Descending FlightAware ADS-B (KPAO)
05:36PM 37.5407 -122.3260 154° Southeast 258 297 9,200 -1,920 Descending FlightAware ADS-B
05:36PM 37.5242 -122.3160 155° Southeast 258 297 8,700 -1,980 Descending FlightAware ADS-B
05:36PM 37.5076 -122.3060 155° Southeast 254 292 8,200 -1,980 Descending FlightAware ADS-B
05:37PM 37.4877 -122.2950 156° South 247 284 7,600 -1,800 Descending FlightAware ADS-B
05:37PM 37.4792 -122.2900 153° Southeast 244 281 7,400 -1,500 Descending FlightAware ADS-B
05:37PM 37.4762 -122.2880 150° Southeast 242 278 7,300 -3,000 Descending FlightAware ADS-B
05:37PM 37.4734 -122.2850 142° Southeast 240 276 7,100 -3,000 Descending FlightAware ADS-B
05:37PM 37.4708 -122.2830 136° Southeast 239 275 7,000 -2,040 Descending FlightAware ADS-B
05:37PM 37.4684 -122.2800 131° Southeast 238 274 6,900 -1,740 Descending FlightAware ADS-B
05:37PM 37.4658 -122.2740 124° Southeast 237 273 6,800 -1,620 Descending FlightAware ADS-B
05:37PM 37.4604 -122.2620 117° Southeast 233 268 6,500 -1,800 Descending FlightAware ADS-B
05:37PM 37.4560 -122.2510 116° Southeast 231 266 6,200 -1,500 Descending FlightAware ADS-B
05:38PM 37.4488 -122.2330 117° Southeast 225 259 5,900 -1,200 Descending FlightAware ADS-B
05:38PM 37.4416 -122.2160 118° Southeast 220 253 5,600 -1,320 Descending FlightAware ADS-B
05:38PM 37.4355 -122.2010 118° Southeast 219 252 5,300 -1,320 Descending FlightAware ADS-B
05:38PM 37.4306 -122.1900 117° Southeast 217 250 5,100 -1,200 Descending FlightAware ADS-B
05:38PM 37.4285 -122.1850 111° Southeast 214 246 5,000 -1,200 Descending FlightAware ADS-B
05:39PM 37.4274 -122.1780 102° East 210 242 4,900 -1,500 Descending FlightAware ADS-B
05:39PM 37.4272 -122.1750 96° East 208 239 4,800 -2,280 Descending FlightAware ADS-B
05:39PM 37.4275 -122.1690 81° East 202 232 4,600 -1,500 Descending FlightAware ADS-B
05:39PM 37.4283 -122.1660 73° East 199 229 4,600 -900 Level FlightAware ADS-B
05:39PM 37.4295 -122.1610 66° East 195 224 4,500 -1,020 Descending FlightAware ADS-B
05:39PM 37.4297 -122.1600 59° Northeast 191 220 4,500 -1,500 Level FlightAware ADS-B (KPAO)
05:39PM 37.4317 -122.1580 54° Northeast 189 217 4,400 -2,040 Descending FlightAware ADS-B
05:39PM 37.4341 -122.1540 43° Northeast 185 213 4,300 -780 Descending FlightAware ADS-B
05:39PM 37.4367 -122.1520 33° Northeast 181 208 4,300 -780 Level FlightAware ADS-B
05:39PM 37.4393 -122.1500 28° Northeast 179 206 4,200 -1,740 Descending FlightAware ADS-B
05:39PM 37.4417 -122.1490 21° North 178 205 4,100 -1,020 Descending FlightAware ADS-B
05:39PM 37.4444 -122.1480 18° North 177 204 4,100 -1,020 Level FlightAware ADS-B
05:39PM 37.4517 -122.1450 15° North 175 201 3,900 -1,440 Descending FlightAware ADS-B
05:39PM 37.4544 -122.1440 11° North 173 199 3,800 -900 Descending FlightAware ADS-B
05:39PM 37.4568 -122.1440 North 173 199 3,800 -780 Level FlightAware ADS-B
05:39PM 37.4611 -122.1440 359° North 172 198 3,700 -1,500 Descending FlightAware ADS-B
05:40PM 37.4635 -122.1440 356° North 172 198 3,600 -1,320 Descending FlightAware ADS-B
05:40PM 37.4721 -122.1450 352° North 178 205 3,400 -960 Descending FlightAware ADS-B
05:40PM 37.4734 -122.1455 352° North 179 206 3,400 -780 Level FlightAware ADS-B (KPAO)
05:40PM 37.4850 -122.1480 352° North 178 205 3,200 -900 Descending FlightAware ADS-B
05:40PM 37.4893 -122.1483 352° North 177 204 3,100 -840 Descending FlightAware ADS-B (KPAO)
05:40PM 37.4973 -122.1500 352° North 178 205 3,000 -960 Descending FlightAware ADS-B
05:40PM 37.5009 -122.1500 350° North 177 204 2,900 -780 Descending FlightAware ADS-B
05:40PM 37.5043 -122.1520 343° North 179 206 2,900 -720 Level FlightAware ADS-B
05:40PM 37.5079 -122.1540 331° Northwest 182 209 2,800 -720 Descending FlightAware ADS-B
05:41PM 37.5106 -122.1560 323° Northwest 185 213 2,800 -780 Level FlightAware ADS-B
05:41PM 37.5134 -122.1590 317° Northwest 186 214 2,700 -780 Descending FlightAware ADS-B
05:41PM 37.5156 -122.1620 313° West 186 214 2,700 -600 Level FlightAware ADS-B
05:41PM 37.5191 -122.1670 310° West 185 213 2,600 -600 Descending FlightAware ADS-B
05:41PM 37.5211 -122.1703 310° West 185 213 2,600 -480 Level FlightAware ADS-B (KPAO)
05:41PM 37.5261 -122.1780 311° West 182 209 2,500 -540 Descending FlightAware ADS-B
05:41PM 37.5345 -122.1900 311° West 181 208 2,400 -600 Descending FlightAware ADS-B
05:41PM 37.5429 -122.2010 312° West 179 206 2,200 -720 Descending FlightAware ADS-B
05:42PM 37.5493 -122.2110 311° West 172 198 2,100 -360 Descending FlightAware ADS-B
05:42PM 37.5515 -122.2150 306° West 170 196 2,100 -720 Level FlightAware ADS-B
05:42PM 37.5534 -122.2180 302° West 167 192 2,000 -600 Descending FlightAware ADS-B
05:42PM 37.5558 -122.2240 298° West 163 188 2,000 -360 Level FlightAware ADS-B
05:42PM 37.5592 -122.2320 296° West 161 185 1,900 -660 Descending FlightAware ADS-B
05:42PM 37.5623 -122.2400 295° West 160 184 1,800 -600 Descending FlightAware ADS-B
05:42PM 37.5659 -122.2500 293° West 160 184 1,700 -840 Descending FlightAware ADS-B
05:43PM 37.5691 -122.2590 293° West 151 174 1,500 -960 Descending FlightAware ADS-B
05:43PM 37.5713 -122.2660 293° West 148 170 1,400 -540 Descending FlightAware ADS-B
05:43PM 37.5755 -122.2780 296° West 148 170 1,300 -360 Descending FlightAware ADS-B
05:43PM 37.5767 -122.2810 299° West 148 170 1,300 -540 Level FlightAware ADS-B
05:43PM 37.5794 -122.2870 300° West 149 171 1,200 -1,080 Descending FlightAware ADS-B
05:43PM 37.5851 -122.2980 303° West 150 173 900 -960 Descending FlightAware ADS-B
05:44PM 37.5909 -122.3100 300° West 143 165 700 -840 Descending FlightAware ADS-B
05:44PM 37.5950 -122.3190 299° West 141 162 500 -900 Descending FlightAware ADS-B
05:44PM 37.6000 -122.3300 298° West 137 158 300 -780 Descending FlightAware ADS-B
05:44PM 37.6046 -122.3410 299° West 136 157 100 -780 Descending FlightAware ADS-B
05:45PM 37.6133 -122.3620 298° West 135 155 -240 Descending FlightAware ADS-B